sensor_id;sensor_type;location;lat;lon;timestamp;P1;durP1;ratioP1;P2;durP2;ratioP2
15915;SDS011;8057;47.830;-3.870;2022-07-10T00:02:06;2.13;;;1.73;;
15915;SDS011;8057;47.830;-3.870;2022-07-10T00:06:14;1.73;;;1.63;;
15915;SDS011;8057;47.830;-3.870;2022-07-10T00:10:25;1.80;;;1.70;;
15915;SDS011;8057;47.830;-3.870;2022-07-10T00:14:35;2.30;;;1.90;;
15915;SDS011;8057;47.830;-3.870;2022-07-10T00:18:44;2.07;;;1.70;;
15915;SDS011;8057;47.830;-3.870;2022-07-10T00:22:53;1.83;;;1.73;;
15915;SDS011;8057;47.830;-3.870;2022-07-10T00:27:08;2.57;;;2.00;;
15915;SDS011;8057;47.830;-3.870;2022-07-10T00:31:18;1.70;;;1.60;;
15915;SDS011;8057;47.830;-3.870;2022-07-10T00:35:27;2.53;;;1.93;;
15915;SDS011;8057;47.830;-3.870;2022-07-10T00:39:35;1.73;;;1.63;;
15915;SDS011;8057;47.830;-3.870;2022-07-10T00:43:52;1.90;;;1.80;;
15915;SDS011;8057;47.830;-3.870;2022-07-10T00:48:02;1.90;;;1.80;;
15915;SDS011;8057;47.830;-3.870;2022-07-10T00:52:12;1.87;;;1.77;;
15915;SDS011;8057;47.830;-3.870;2022-07-10T00:56:22;2.10;;;1.90;;
15915;SDS011;8057;47.830;-3.870;2022-07-10T01:00:34;2.37;;;2.13;;
15915;SDS011;8057;47.830;-3.870;2022-07-10T01:04:44;2.23;;;2.03;;
15915;SDS011;8057;47.830;-3.870;2022-07-10T01:08:53;2.13;;;1.77;;
15915;SDS011;8057;47.830;-3.870;2022-07-10T01:13:02;1.80;;;1.70;;
15915;SDS011;8057;47.830;-3.870;2022-07-10T01:17:13;1.97;;;1.87;;
15915;SDS011;8057;47.830;-3.870;2022-07-10T01:21:24;2.00;;;1.80;;
15915;SDS011;8057;47.830;-3.870;2022-07-10T01:25:33;3.17;;;1.90;;
15915;SDS011;8057;47.830;-3.870;2022-07-10T01:29:42;2.07;;;1.90;;
15915;SDS011;8057;47.830;-3.870;2022-07-10T01:33:52;2.00;;;1.80;;
15915;SDS011;8057;47.830;-3.870;2022-07-10T01:38:03;2.40;;;2.10;;
15915;SDS011;8057;47.830;-3.870;2022-07-10T01:42:12;2.30;;;2.10;;
15915;SDS011;8057;47.830;-3.870;2022-07-10T01:46:21;2.10;;;2.00;;
15915;SDS011;8057;47.830;-3.870;2022-07-10T01:50:31;1.80;;;1.70;;
15915;SDS011;8057;47.830;-3.870;2022-07-10T01:54:41;3.10;;;1.90;;
15915;SDS011;8057;47.830;-3.870;2022-07-10T01:58:50;2.20;;;2.03;;
15915;SDS011;8057;47.830;-3.870;2022-07-10T02:02:59;2.20;;;1.97;;
15915;SDS011;8057;47.830;-3.870;2022-07-10T02:07:25;2.30;;;2.10;;
15915;SDS011;8057;47.830;-3.870;2022-07-10T02:11:35;2.20;;;2.10;;
15915;SDS011;8057;47.830;-3.870;2022-07-10T02:15:44;2.10;;;1.90;;
15915;SDS011;8057;47.830;-3.870;2022-07-10T02:19:52;3.53;;;2.10;;
15915;SDS011;8057;47.830;-3.870;2022-07-10T02:24:01;1.93;;;1.80;;
15915;SDS011;8057;47.830;-3.870;2022-07-10T02:28:12;2.00;;;1.90;;
15915;SDS011;8057;47.830;-3.870;2022-07-10T02:32:21;2.00;;;1.90;;
15915;SDS011;8057;47.830;-3.870;2022-07-10T02:36:29;2.27;;;2.07;;
15915;SDS011;8057;47.830;-3.870;2022-07-10T02:40:38;2.50;;;2.27;;
15915;SDS011;8057;47.830;-3.870;2022-07-10T02:44:48;2.53;;;1.83;;
15915;SDS011;8057;47.830;-3.870;2022-07-10T02:48:57;2.47;;;2.27;;
15915;SDS011;8057;47.830;-3.870;2022-07-10T02:53:06;2.40;;;2.20;;
15915;SDS011;8057;47.830;-3.870;2022-07-10T02:57:15;2.10;;;1.90;;
15915;SDS011;8057;47.830;-3.870;2022-07-10T03:01:25;1.67;;;1.57;;
15915;SDS011;8057;47.830;-3.870;2022-07-10T03:05:34;2.50;;;2.07;;
15915;SDS011;8057;47.830;-3.870;2022-07-10T03:09:43;2.00;;;1.90;;
15915;SDS011;8057;47.830;-3.870;2022-07-10T03:13:51;2.40;;;2.20;;
15915;SDS011;8057;47.830;-3.870;2022-07-10T03:18:02;1.80;;;1.70;;
15915;SDS011;8057;47.830;-3.870;2022-07-10T03:22:11;2.57;;;2.23;;
15915;SDS011;8057;47.830;-3.870;2022-07-10T03:26:19;1.80;;;1.70;;
15915;SDS011;8057;47.830;-3.870;2022-07-10T03:30:28;2.17;;;2.00;;
15915;SDS011;8057;47.830;-3.870;2022-07-10T03:34:38;2.37;;;2.03;;
15915;SDS011;8057;47.830;-3.870;2022-07-10T03:38:47;2.03;;;1.87;;
15915;SDS011;8057;47.830;-3.870;2022-07-10T03:42:56;2.53;;;2.33;;
15915;SDS011;8057;47.830;-3.870;2022-07-10T03:47:05;2.83;;;2.10;;
15915;SDS011;8057;47.830;-3.870;2022-07-10T03:51:15;1.87;;;1.77;;
15915;SDS011;8057;47.830;-3.870;2022-07-10T03:55:24;2.90;;;2.00;;
15915;SDS011;8057;47.830;-3.870;2022-07-10T03:59:33;2.23;;;2.07;;
15915;SDS011;8057;47.830;-3.870;2022-07-10T04:03:42;2.10;;;1.90;;
15915;SDS011;8057;47.830;-3.870;2022-07-10T04:07:53;2.33;;;2.17;;
15915;SDS011;8057;47.830;-3.870;2022-07-10T04:12:03;2.67;;;2.47;;
15915;SDS011;8057;47.830;-3.870;2022-07-10T04:16:13;2.50;;;2.40;;
15915;SDS011;8057;47.830;-3.870;2022-07-10T04:20:22;2.13;;;2.00;;
15915;SDS011;8057;47.830;-3.870;2022-07-10T04:24:33;2.23;;;2.07;;
15915;SDS011;8057;47.830;-3.870;2022-07-10T04:28:41;2.10;;;1.90;;
15915;SDS011;8057;47.830;-3.870;2022-07-10T04:32:50;2.20;;;2.10;;
15915;SDS011;8057;47.830;-3.870;2022-07-10T04:36:59;2.83;;;2.60;;
15915;SDS011;8057;47.830;-3.870;2022-07-10T04:41:09;2.80;;;2.17;;
15915;SDS011;8057;47.830;-3.870;2022-07-10T04:45:18;2.10;;;2.00;;
15915;SDS011;8057;47.830;-3.870;2022-07-10T04:49:27;2.40;;;2.20;;
15915;SDS011;8057;47.830;-3.870;2022-07-10T04:53:36;2.13;;;1.87;;
15915;SDS011;8057;47.830;-3.870;2022-07-10T04:57:47;2.50;;;2.30;;
15915;SDS011;8057;47.830;-3.870;2022-07-10T05:01:55;3.17;;;2.87;;
15915;SDS011;8057;47.830;-3.870;2022-07-10T05:06:04;2.60;;;2.40;;
15915;SDS011;8057;47.830;-3.870;2022-07-10T05:10:13;2.17;;;2.00;;
15915;SDS011;8057;47.830;-3.870;2022-07-10T05:14:23;4.17;;;2.60;;
15915;SDS011;8057;47.830;-3.870;2022-07-10T05:18:33;1.93;;;1.83;;
15915;SDS011;8057;47.830;-3.870;2022-07-10T05:22:43;2.50;;;2.30;;
15915;SDS011;8057;47.830;-3.870;2022-07-10T05:26:51;2.77;;;2.57;;
15915;SDS011;8057;47.830;-3.870;2022-07-10T05:31:02;1.90;;;1.80;;
15915;SDS011;8057;47.830;-3.870;2022-07-10T05:35:10;2.03;;;1.80;;
15915;SDS011;8057;47.830;-3.870;2022-07-10T05:39:19;2.50;;;2.30;;
15915;SDS011;8057;47.830;-3.870;2022-07-10T05:43:28;2.13;;;2.03;;
15915;SDS011;8057;47.830;-3.870;2022-07-10T05:47:38;2.00;;;1.90;;
15915;SDS011;8057;47.830;-3.870;2022-07-10T05:51:47;2.27;;;2.10;;
15915;SDS011;8057;47.830;-3.870;2022-07-10T05:55:59;2.03;;;1.87;;
15915;SDS011;8057;47.830;-3.870;2022-07-10T06:00:09;3.23;;;2.23;;
15915;SDS011;8057;47.830;-3.870;2022-07-10T06:04:19;1.83;;;1.73;;
15915;SDS011;8057;47.830;-3.870;2022-07-10T06:08:28;2.20;;;2.00;;
15915;SDS011;8057;47.830;-3.870;2022-07-10T06:12:37;1.87;;;1.77;;
15915;SDS011;8057;47.830;-3.870;2022-07-10T06:16:46;2.10;;;1.90;;
15915;SDS011;8057;47.830;-3.870;2022-07-10T06:20:56;2.07;;;1.50;;
15915;SDS011;8057;47.830;-3.870;2022-07-10T06:25:09;1.53;;;1.40;;
15915;SDS011;8057;47.830;-3.870;2022-07-10T06:29:19;1.73;;;1.63;;
15915;SDS011;8057;47.830;-3.870;2022-07-10T06:33:28;3.23;;;1.70;;
15915;SDS011;8057;47.830;-3.870;2022-07-10T06:37:38;1.60;;;1.50;;
15915;SDS011;8057;47.830;-3.870;2022-07-10T06:41:47;2.27;;;1.60;;
15915;SDS011;8057;47.830;-3.870;2022-07-10T06:45:55;1.37;;;1.27;;
15915;SDS011;8057;47.830;-3.870;2022-07-10T06:50:05;1.50;;;1.13;;
15915;SDS011;8057;47.830;-3.870;2022-07-10T06:54:17;1.50;;;1.40;;
15915;SDS011;8057;47.830;-3.870;2022-07-10T06:58:26;1.47;;;1.30;;
15915;SDS011;8057;47.830;-3.870;2022-07-10T07:02:35;1.27;;;1.17;;
15915;SDS011;8057;47.830;-3.870;2022-07-10T07:06:44;1.30;;;1.30;;
15915;SDS011;8057;47.830;-3.870;2022-07-10T07:10:55;1.73;;;1.60;;
15915;SDS011;8057;47.830;-3.870;2022-07-10T07:15:04;1.80;;;1.50;;
15915;SDS011;8057;47.830;-3.870;2022-07-10T07:19:13;1.57;;;1.10;;
15915;SDS011;8057;47.830;-3.870;2022-07-10T07:23:25;1.40;;;1.23;;
15915;SDS011;8057;47.830;-3.870;2022-07-10T07:27:35;1.07;;;1.07;;
15915;SDS011;8057;47.830;-3.870;2022-07-10T07:31:45;1.43;;;1.23;;
15915;SDS011;8057;47.830;-3.870;2022-07-10T07:35:53;1.30;;;1.20;;
15915;SDS011;8057;47.830;-3.870;2022-07-10T07:40:03;2.43;;;1.27;;
15915;SDS011;8057;47.830;-3.870;2022-07-10T07:44:14;0.90;;;0.90;;
15915;SDS011;8057;47.830;-3.870;2022-07-10T07:48:24;1.20;;;1.10;;
15915;SDS011;8057;47.830;-3.870;2022-07-10T07:52:33;1.73;;;1.07;;
15915;SDS011;8057;47.830;-3.870;2022-07-10T07:56:42;2.00;;;0.93;;
15915;SDS011;8057;47.830;-3.870;2022-07-10T08:00:52;1.13;;;0.93;;
15915;SDS011;8057;47.830;-3.870;2022-07-10T08:05:03;0.93;;;0.93;;
15915;SDS011;8057;47.830;-3.870;2022-07-10T08:09:13;1.80;;;1.00;;
15915;SDS011;8057;47.830;-3.870;2022-07-10T08:13:21;0.80;;;0.80;;
15915;SDS011;8057;47.830;-3.870;2022-07-10T08:17:31;0.90;;;0.90;;
15915;SDS011;8057;47.830;-3.870;2022-07-10T08:21:40;1.20;;;1.10;;
15915;SDS011;8057;47.830;-3.870;2022-07-10T08:25:50;0.70;;;0.70;;
15915;SDS011;8057;47.830;-3.870;2022-07-10T08:29:59;1.10;;;1.00;;
15915;SDS011;8057;47.830;-3.870;2022-07-10T08:34:09;0.80;;;0.80;;
15915;SDS011;8057;47.830;-3.870;2022-07-10T08:38:18;2.47;;;0.90;;
15915;SDS011;8057;47.830;-3.870;2022-07-10T08:42:26;1.20;;;0.90;;
15915;SDS011;8057;47.830;-3.870;2022-07-10T08:46:35;1.27;;;0.80;;
15915;SDS011;8057;47.830;-3.870;2022-07-10T08:50:47;1.07;;;0.80;;
15915;SDS011;8057;47.830;-3.870;2022-07-10T08:54:59;1.47;;;0.90;;
15915;SDS011;8057;47.830;-3.870;2022-07-10T08:59:08;0.90;;;0.90;;
15915;SDS011;8057;47.830;-3.870;2022-07-10T09:03:17;2.20;;;0.80;;
15915;SDS011;8057;47.830;-3.870;2022-07-10T09:07:28;1.23;;;0.90;;
15915;SDS011;8057;47.830;-3.870;2022-07-10T09:11:43;1.17;;;0.70;;
15915;SDS011;8057;47.830;-3.870;2022-07-10T09:15:52;1.37;;;0.60;;
15915;SDS011;8057;47.830;-3.870;2022-07-10T09:20:01;1.43;;;0.80;;
15915;SDS011;8057;47.830;-3.870;2022-07-10T09:24:13;1.27;;;0.83;;
15915;SDS011;8057;47.830;-3.870;2022-07-10T09:28:23;0.93;;;0.83;;
15915;SDS011;8057;47.830;-3.870;2022-07-10T09:32:32;1.67;;;1.10;;
15915;SDS011;8057;47.830;-3.870;2022-07-10T09:36:41;1.33;;;0.80;;
15915;SDS011;8057;47.830;-3.870;2022-07-10T09:40:51;0.80;;;0.80;;
15915;SDS011;8057;47.830;-3.870;2022-07-10T09:49:31;1.17;;;0.80;;
15915;SDS011;8057;47.830;-3.870;2022-07-10T09:53:40;1.17;;;0.80;;
15915;SDS011;8057;47.830;-3.870;2022-07-10T09:57:53;0.90;;;0.90;;
15915;SDS011;8057;47.830;-3.870;2022-07-10T10:02:03;1.10;;;1.10;;
15915;SDS011;8057;47.830;-3.870;2022-07-10T10:06:15;0.90;;;0.90;;
15915;SDS011;8057;47.830;-3.870;2022-07-10T10:10:24;1.17;;;0.80;;
15915;SDS011;8057;47.830;-3.870;2022-07-10T10:14:35;1.10;;;0.97;;
15915;SDS011;8057;47.830;-3.870;2022-07-10T10:18:44;1.10;;;1.00;;
15915;SDS011;8057;47.830;-3.870;2022-07-10T10:23:14;2.17;;;0.80;;
15915;SDS011;8057;47.830;-3.870;2022-07-10T10:27:28;1.10;;;1.00;;
15915;SDS011;8057;47.830;-3.870;2022-07-10T10:31:38;0.90;;;0.90;;
15915;SDS011;8057;47.830;-3.870;2022-07-10T10:35:48;1.00;;;0.83;;
15915;SDS011;8057;47.830;-3.870;2022-07-10T10:39:56;0.80;;;0.80;;
15915;SDS011;8057;47.830;-3.870;2022-07-10T10:48:47;0.70;;;0.70;;
15915;SDS011;8057;47.830;-3.870;2022-07-10T10:53:14;0.70;;;0.70;;
15915;SDS011;8057;47.830;-3.870;2022-07-10T10:57:33;0.73;;;0.73;;
15915;SDS011;8057;47.830;-3.870;2022-07-10T11:01:46;0.70;;;0.70;;
15915;SDS011;8057;47.830;-3.870;2022-07-10T11:06:39;1.00;;;0.80;;
15915;SDS011;8057;47.830;-3.870;2022-07-10T11:10:49;0.80;;;0.80;;
15915;SDS011;8057;47.830;-3.870;2022-07-10T11:14:57;1.13;;;0.63;;
15915;SDS011;8057;47.830;-3.870;2022-07-10T11:19:12;0.80;;;0.80;;
15915;SDS011;8057;47.830;-3.870;2022-07-10T11:23:47;0.70;;;0.70;;
15915;SDS011;8057;47.830;-3.870;2022-07-10T11:28:04;1.40;;;0.80;;
15915;SDS011;8057;47.830;-3.870;2022-07-10T11:32:16;0.80;;;0.80;;
15915;SDS011;8057;47.830;-3.870;2022-07-10T11:36:25;0.80;;;0.63;;
15915;SDS011;8057;47.830;-3.870;2022-07-10T11:40:39;1.20;;;0.70;;
15915;SDS011;8057;47.830;-3.870;2022-07-10T11:44:48;0.82;;;0.82;;
15915;SDS011;8057;47.830;-3.870;2022-07-10T11:48:57;0.60;;;0.60;;
15915;SDS011;8057;47.830;-3.870;2022-07-10T11:53:06;1.25;;;0.80;;
15915;SDS011;8057;47.830;-3.870;2022-07-10T11:57:17;0.93;;;0.70;;
15915;SDS011;8057;47.830;-3.870;2022-07-10T12:01:25;1.02;;;0.90;;
15915;SDS011;8057;47.830;-3.870;2022-07-10T12:05:37;3.22;;;1.08;;
15915;SDS011;8057;47.830;-3.870;2022-07-10T12:09:52;3.30;;;0.93;;
15915;SDS011;8057;47.830;-3.870;2022-07-10T12:14:09;1.92;;;0.88;;
15915;SDS011;8057;47.830;-3.870;2022-07-10T12:18:21;0.85;;;0.85;;
15915;SDS011;8057;47.830;-3.870;2022-07-10T12:22:30;2.05;;;0.82;;
15915;SDS011;8057;47.830;-3.870;2022-07-10T12:26:40;1.80;;;0.90;;
15915;SDS011;8057;47.830;-3.870;2022-07-10T12:30:51;1.48;;;1.10;;
15915;SDS011;8057;47.830;-3.870;2022-07-10T12:35:00;0.88;;;0.88;;
15915;SDS011;8057;47.830;-3.870;2022-07-10T12:39:09;1.33;;;0.90;;
15915;SDS011;8057;47.830;-3.870;2022-07-10T12:43:27;1.07;;;0.97;;
15915;SDS011;8057;47.830;-3.870;2022-07-10T12:47:44;1.80;;;1.00;;
15915;SDS011;8057;47.830;-3.870;2022-07-10T12:51:54;2.00;;;0.90;;
15915;SDS011;8057;47.830;-3.870;2022-07-10T12:56:32;2.88;;;0.90;;
15915;SDS011;8057;47.830;-3.870;2022-07-10T13:00:43;1.27;;;0.93;;
15915;SDS011;8057;47.830;-3.870;2022-07-10T13:04:56;1.65;;;0.90;;
15915;SDS011;8057;47.830;-3.870;2022-07-10T13:09:18;1.25;;;0.82;;
15915;SDS011;8057;47.830;-3.870;2022-07-10T13:13:28;0.98;;;0.90;;
15915;SDS011;8057;47.830;-3.870;2022-07-10T13:17:42;1.55;;;0.90;;
15915;SDS011;8057;47.830;-3.870;2022-07-10T13:21:53;1.15;;;0.80;;
15915;SDS011;8057;47.830;-3.870;2022-07-10T13:26:03;3.90;;;0.90;;
15915;SDS011;8057;47.830;-3.870;2022-07-10T13:30:13;1.27;;;1.15;;
15915;SDS011;8057;47.830;-3.870;2022-07-10T13:34:22;2.55;;;1.30;;
15915;SDS011;8057;47.830;-3.870;2022-07-10T13:38:34;1.20;;;1.10;;
15915;SDS011;8057;47.830;-3.870;2022-07-10T13:42:44;2.08;;;1.00;;
15915;SDS011;8057;47.830;-3.870;2022-07-10T13:46:53;0.90;;;0.85;;
15915;SDS011;8057;47.830;-3.870;2022-07-10T13:51:02;1.08;;;0.90;;
15915;SDS011;8057;47.830;-3.870;2022-07-10T13:55:12;1.63;;;0.88;;
15915;SDS011;8057;47.830;-3.870;2022-07-10T13:59:21;0.95;;;0.90;;
15915;SDS011;8057;47.830;-3.870;2022-07-10T14:03:30;1.92;;;1.00;;
15915;SDS011;8057;47.830;-3.870;2022-07-10T14:07:39;2.05;;;1.10;;
15915;SDS011;8057;47.830;-3.870;2022-07-10T14:11:49;1.42;;;0.63;;
15915;SDS011;8057;47.830;-3.870;2022-07-10T14:15:58;0.73;;;0.73;;
15915;SDS011;8057;47.830;-3.870;2022-07-10T14:20:09;1.07;;;0.97;;
15915;SDS011;8057;47.830;-3.870;2022-07-10T14:24:18;0.80;;;0.80;;
15915;SDS011;8057;47.830;-3.870;2022-07-10T14:28:29;1.40;;;1.30;;
15915;SDS011;8057;47.830;-3.870;2022-07-10T14:32:38;0.77;;;0.77;;
15915;SDS011;8057;47.830;-3.870;2022-07-10T14:36:47;2.63;;;0.90;;
15915;SDS011;8057;47.830;-3.870;2022-07-10T14:41:01;0.83;;;0.70;;
15915;SDS011;8057;47.830;-3.870;2022-07-10T14:45:12;0.80;;;0.80;;
15915;SDS011;8057;47.830;-3.870;2022-07-10T14:49:41;1.07;;;0.87;;
15915;SDS011;8057;47.830;-3.870;2022-07-10T14:53:50;3.05;;;1.00;;
15915;SDS011;8057;47.830;-3.870;2022-07-10T14:57:59;1.17;;;0.80;;
15915;SDS011;8057;47.830;-3.870;2022-07-10T15:02:09;4.53;;;1.00;;
15915;SDS011;8057;47.830;-3.870;2022-07-10T15:06:18;1.10;;;0.90;;
15915;SDS011;8057;47.830;-3.870;2022-07-10T15:10:26;1.00;;;0.87;;
15915;SDS011;8057;47.830;-3.870;2022-07-10T15:14:35;0.80;;;0.80;;
15915;SDS011;8057;47.830;-3.870;2022-07-10T15:18:45;0.80;;;0.80;;
15915;SDS011;8057;47.830;-3.870;2022-07-10T15:22:54;0.87;;;0.87;;
15915;SDS011;8057;47.830;-3.870;2022-07-10T15:27:03;2.40;;;1.10;;
15915;SDS011;8057;47.830;-3.870;2022-07-10T15:31:13;2.07;;;0.97;;
15915;SDS011;8057;47.830;-3.870;2022-07-10T15:35:23;0.90;;;0.90;;
15915;SDS011;8057;47.830;-3.870;2022-07-10T15:39:32;1.37;;;0.77;;
15915;SDS011;8057;47.830;-3.870;2022-07-10T15:43:48;0.63;;;0.63;;
15915;SDS011;8057;47.830;-3.870;2022-07-10T15:47:56;0.73;;;0.60;;
15915;SDS011;8057;47.830;-3.870;2022-07-10T15:52:07;0.63;;;0.63;;
15915;SDS011;8057;47.830;-3.870;2022-07-10T15:56:15;0.70;;;0.70;;
15915;SDS011;8057;47.830;-3.870;2022-07-10T16:00:24;1.37;;;0.80;;
15915;SDS011;8057;47.830;-3.870;2022-07-10T16:04:33;0.80;;;0.70;;
15915;SDS011;8057;47.830;-3.870;2022-07-10T16:08:43;0.70;;;0.70;;
15915;SDS011;8057;47.830;-3.870;2022-07-10T16:12:52;0.87;;;0.70;;
15915;SDS011;8057;47.830;-3.870;2022-07-10T16:17:00;0.90;;;0.80;;
15915;SDS011;8057;47.830;-3.870;2022-07-10T16:21:10;0.77;;;0.70;;
15915;SDS011;8057;47.830;-3.870;2022-07-10T16:25:23;0.80;;;0.70;;
15915;SDS011;8057;47.830;-3.870;2022-07-10T16:29:49;2.15;;;0.80;;
15915;SDS011;8057;47.830;-3.870;2022-07-10T16:33:58;0.65;;;0.65;;
15915;SDS011;8057;47.830;-3.870;2022-07-10T16:38:07;1.02;;;0.52;;
15915;SDS011;8057;47.830;-3.870;2022-07-10T16:42:17;1.17;;;0.70;;
15915;SDS011;8057;47.830;-3.870;2022-07-10T16:46:26;0.88;;;0.68;;
15915;SDS011;8057;47.830;-3.870;2022-07-10T16:50:35;0.90;;;0.90;;
15915;SDS011;8057;47.830;-3.870;2022-07-10T16:54:44;1.05;;;0.70;;
15915;SDS011;8057;47.830;-3.870;2022-07-10T16:58:55;0.85;;;0.80;;
15915;SDS011;8057;47.830;-3.870;2022-07-10T17:03:04;1.45;;;0.70;;
15915;SDS011;8057;47.830;-3.870;2022-07-10T17:07:16;0.60;;;0.60;;
15915;SDS011;8057;47.830;-3.870;2022-07-10T17:11:24;0.77;;;0.77;;
15915;SDS011;8057;47.830;-3.870;2022-07-10T17:15:38;1.90;;;0.80;;
15915;SDS011;8057;47.830;-3.870;2022-07-10T17:19:47;1.13;;;0.70;;
15915;SDS011;8057;47.830;-3.870;2022-07-10T17:23:57;0.80;;;0.70;;
15915;SDS011;8057;47.830;-3.870;2022-07-10T17:28:06;0.80;;;0.63;;
15915;SDS011;8057;47.830;-3.870;2022-07-10T17:32:17;0.85;;;0.75;;
15915;SDS011;8057;47.830;-3.870;2022-07-10T17:36:25;3.45;;;3.15;;
15915;SDS011;8057;47.830;-3.870;2022-07-10T17:40:35;1.17;;;0.95;;
15915;SDS011;8057;47.830;-3.870;2022-07-10T17:44:44;1.20;;;1.10;;
15915;SDS011;8057;47.830;-3.870;2022-07-10T17:48:54;1.40;;;1.30;;
15915;SDS011;8057;47.830;-3.870;2022-07-10T17:53:03;1.77;;;1.60;;
15915;SDS011;8057;47.830;-3.870;2022-07-10T17:57:11;1.63;;;0.83;;
15915;SDS011;8057;47.830;-3.870;2022-07-10T18:01:22;1.67;;;1.10;;
15915;SDS011;8057;47.830;-3.870;2022-07-10T18:05:32;3.23;;;1.20;;
15915;SDS011;8057;47.830;-3.870;2022-07-10T18:09:41;0.93;;;0.80;;
15915;SDS011;8057;47.830;-3.870;2022-07-10T18:13:50;0.97;;;0.83;;
15915;SDS011;8057;47.830;-3.870;2022-07-10T18:17:59;1.50;;;1.00;;
15915;SDS011;8057;47.830;-3.870;2022-07-10T18:22:10;0.87;;;0.80;;
15915;SDS011;8057;47.830;-3.870;2022-07-10T18:26:19;1.07;;;0.83;;
15915;SDS011;8057;47.830;-3.870;2022-07-10T18:30:28;1.60;;;0.77;;
15915;SDS011;8057;47.830;-3.870;2022-07-10T18:34:36;0.73;;;0.63;;
15915;SDS011;8057;47.830;-3.870;2022-07-10T18:38:48;0.93;;;0.63;;
15915;SDS011;8057;47.830;-3.870;2022-07-10T18:42:57;0.60;;;0.60;;
15915;SDS011;8057;47.830;-3.870;2022-07-10T18:47:07;1.20;;;0.80;;
15915;SDS011;8057;47.830;-3.870;2022-07-10T18:51:16;0.73;;;0.60;;
15915;SDS011;8057;47.830;-3.870;2022-07-10T18:55:26;0.73;;;0.70;;
15915;SDS011;8057;47.830;-3.870;2022-07-10T18:59:35;0.97;;;0.60;;
15915;SDS011;8057;47.830;-3.870;2022-07-10T19:03:43;0.60;;;0.50;;
15915;SDS011;8057;47.830;-3.870;2022-07-10T19:07:52;1.50;;;0.90;;
15915;SDS011;8057;47.830;-3.870;2022-07-10T19:12:02;1.27;;;0.70;;
15915;SDS011;8057;47.830;-3.870;2022-07-10T19:16:12;1.03;;;0.77;;
15915;SDS011;8057;47.830;-3.870;2022-07-10T19:20:22;1.63;;;1.53;;
15915;SDS011;8057;47.830;-3.870;2022-07-10T19:24:30;1.43;;;1.13;;
15915;SDS011;8057;47.830;-3.870;2022-07-10T19:28:41;4.37;;;1.13;;
15915;SDS011;8057;47.830;-3.870;2022-07-10T19:32:50;1.20;;;1.03;;
15915;SDS011;8057;47.830;-3.870;2022-07-10T19:36:59;1.43;;;0.97;;
15915;SDS011;8057;47.830;-3.870;2022-07-10T19:41:07;1.53;;;0.90;;
15915;SDS011;8057;47.830;-3.870;2022-07-10T19:45:20;0.80;;;0.70;;
15915;SDS011;8057;47.830;-3.870;2022-07-10T19:49:29;2.80;;;1.37;;
15915;SDS011;8057;47.830;-3.870;2022-07-10T19:53:38;2.60;;;1.00;;
15915;SDS011;8057;47.830;-3.870;2022-07-10T19:57:47;1.30;;;1.00;;
15915;SDS011;8057;47.830;-3.870;2022-07-10T20:01:57;3.67;;;1.33;;
15915;SDS011;8057;47.830;-3.870;2022-07-10T20:06:06;1.80;;;1.23;;
15915;SDS011;8057;47.830;-3.870;2022-07-10T20:10:15;1.43;;;1.10;;
15915;SDS011;8057;47.830;-3.870;2022-07-10T20:14:24;1.63;;;1.27;;
15915;SDS011;8057;47.830;-3.870;2022-07-10T20:18:37;1.63;;;1.20;;
15915;SDS011;8057;47.830;-3.870;2022-07-10T20:22:47;1.63;;;1.40;;
15915;SDS011;8057;47.830;-3.870;2022-07-10T20:26:56;2.40;;;1.43;;
15915;SDS011;8057;47.830;-3.870;2022-07-10T20:31:05;3.53;;;1.20;;
15915;SDS011;8057;47.830;-3.870;2022-07-10T20:35:15;1.90;;;1.80;;
15915;SDS011;8057;47.830;-3.870;2022-07-10T20:39:24;2.27;;;1.80;;
15915;SDS011;8057;47.830;-3.870;2022-07-10T20:43:33;1.83;;;1.30;;
15915;SDS011;8057;47.830;-3.870;2022-07-10T20:47:42;1.60;;;1.40;;
15915;SDS011;8057;47.830;-3.870;2022-07-10T20:51:52;1.40;;;1.30;;
15915;SDS011;8057;47.830;-3.870;2022-07-10T20:56:01;1.97;;;1.53;;
15915;SDS011;8057;47.830;-3.870;2022-07-10T21:00:10;2.60;;;1.40;;
15915;SDS011;8057;47.830;-3.870;2022-07-10T21:04:21;2.27;;;1.50;;
15915;SDS011;8057;47.830;-3.870;2022-07-10T21:08:32;1.40;;;1.30;;
15915;SDS011;8057;47.830;-3.870;2022-07-10T21:12:40;1.37;;;1.27;;
15915;SDS011;8057;47.830;-3.870;2022-07-10T21:16:49;1.90;;;1.30;;
15915;SDS011;8057;47.830;-3.870;2022-07-10T21:20:58;7.20;;;1.47;;
15915;SDS011;8057;47.830;-3.870;2022-07-10T21:25:08;2.47;;;1.50;;
15915;SDS011;8057;47.830;-3.870;2022-07-10T21:29:17;3.07;;;1.43;;
15915;SDS011;8057;47.830;-3.870;2022-07-10T21:33:26;2.27;;;1.40;;
15915;SDS011;8057;47.830;-3.870;2022-07-10T21:37:35;2.37;;;1.50;;
15915;SDS011;8057;47.830;-3.870;2022-07-10T21:41:45;2.07;;;1.57;;
15915;SDS011;8057;47.830;-3.870;2022-07-10T21:45:54;1.93;;;1.63;;
15915;SDS011;8057;47.830;-3.870;2022-07-10T21:50:03;1.97;;;1.50;;
15915;SDS011;8057;47.830;-3.870;2022-07-10T21:54:12;2.00;;;1.80;;
15915;SDS011;8057;47.830;-3.870;2022-07-10T21:58:22;2.07;;;1.57;;
15915;SDS011;8057;47.830;-3.870;2022-07-10T22:02:31;1.93;;;1.60;;
15915;SDS011;8057;47.830;-3.870;2022-07-10T22:06:40;1.63;;;1.50;;
15915;SDS011;8057;47.830;-3.870;2022-07-10T22:10:49;3.37;;;1.47;;
15915;SDS011;8057;47.830;-3.870;2022-07-10T22:14:59;1.77;;;1.57;;
15915;SDS011;8057;47.830;-3.870;2022-07-10T22:19:08;3.37;;;1.80;;
15915;SDS011;8057;47.830;-3.870;2022-07-10T22:23:17;2.97;;;2.03;;
15915;SDS011;8057;47.830;-3.870;2022-07-10T22:27:26;2.53;;;1.90;;
15915;SDS011;8057;47.830;-3.870;2022-07-10T22:31:36;1.80;;;1.70;;
15915;SDS011;8057;47.830;-3.870;2022-07-10T22:35:45;3.67;;;1.60;;
15915;SDS011;8057;47.830;-3.870;2022-07-10T22:39:54;4.33;;;1.80;;
15915;SDS011;8057;47.830;-3.870;2022-07-10T22:44:03;2.23;;;1.70;;
15915;SDS011;8057;47.830;-3.870;2022-07-10T22:48:13;2.60;;;1.87;;
15915;SDS011;8057;47.830;-3.870;2022-07-10T22:52:22;3.67;;;1.90;;
15915;SDS011;8057;47.830;-3.870;2022-07-10T22:56:31;2.17;;;1.50;;
15915;SDS011;8057;47.830;-3.870;2022-07-10T23:00:40;3.00;;;2.07;;
15915;SDS011;8057;47.830;-3.870;2022-07-10T23:04:52;4.27;;;1.97;;
15915;SDS011;8057;47.830;-3.870;2022-07-10T23:09:01;1.60;;;1.50;;
15915;SDS011;8057;47.830;-3.870;2022-07-10T23:13:10;3.20;;;1.60;;
15915;SDS011;8057;47.830;-3.870;2022-07-10T23:17:18;3.33;;;2.00;;
15915;SDS011;8057;47.830;-3.870;2022-07-10T23:21:29;4.70;;;2.03;;
15915;SDS011;8057;47.830;-3.870;2022-07-10T23:25:37;2.17;;;1.83;;
15915;SDS011;8057;47.830;-3.870;2022-07-10T23:29:46;3.17;;;1.60;;
15915;SDS011;8057;47.830;-3.870;2022-07-10T23:33:55;2.47;;;1.73;;
15915;SDS011;8057;47.830;-3.870;2022-07-10T23:38:05;2.50;;;2.03;;
15915;SDS011;8057;47.830;-3.870;2022-07-10T23:42:14;1.70;;;1.60;;
15915;SDS011;8057;47.830;-3.870;2022-07-10T23:46:23;4.00;;;2.03;;
15915;SDS011;8057;47.830;-3.870;2022-07-10T23:50:32;2.17;;;1.90;;
15915;SDS011;8057;47.830;-3.870;2022-07-10T23:54:43;2.17;;;1.83;;
15915;SDS011;8057;47.830;-3.870;2022-07-10T23:58:52;2.60;;;2.00;;
